Time;durP1;ratioP1;P1;durP2;ratioP2;P2;SDS_P1;SDS_P2;PMS_P1;PMS_P2;Temp;Humidity;BMP_temperature;BMP_pressure;BME280_temperature;BME280_humidity;BME280_pressure;Samples;Min_cycle;Max_cycle;Signal;HPM_P1;HPM_P2
2023/07/28 00:00:10;;;;;;;;;;;18.30;99.90;;;;;;5141010;27;19915;-43
2023/07/28 00:02:35;;;;;;;;;;;18.30;99.90;;;;;;5142267;27;19918;-43
2023/07/28 00:05:01;;;;;;;;;;;18.30;99.90;;;;;;5143388;27;19916;-43
2023/07/28 00:07:26;;;;;;;;;;;18.30;99.90;;;;;;5140646;27;19939;-46
2023/07/28 00:09:52;;;;;;;;;;;18.30;99.90;;;;;;5142781;27;19907;-44
2023/07/28 00:12:17;;;;;;;;;;;18.30;99.90;;;;;;5142841;27;19929;-43
2023/07/28 00:14:43;;;;;;;;;;;18.30;99.90;;;;;;5140078;27;19975;-44
2023/07/28 00:17:08;;;;;;;;;;;18.30;99.90;;;;;;5145189;27;20345;-43
2023/07/28 00:19:34;;;;;;;;;;;18.30;99.90;;;;;;5146912;27;19913;-44
2023/07/28 00:21:59;;;;;;;;;;;18.30;99.90;;;;;;5141583;27;19919;-44
2023/07/28 00:24:24;;;;;;;;;;;18.30;99.90;;;;;;5135837;27;19918;-44
2023/07/28 00:26:50;;;;;;;;;;;18.30;99.90;;;;;;5136307;27;19907;-45
2023/07/28 00:29:15;;;;;;;;;;;18.30;99.90;;;;;;5140702;27;19908;-45
2023/07/28 00:31:41;;;;;;;;;;;18.30;99.90;;;;;;5147342;27;19994;-44
2023/07/28 00:34:06;;;;;;;;;;;18.30;99.90;;;;;;5144684;27;19916;-43
2023/07/28 00:36:32;;;;;;;;;;;18.30;99.90;;;;;;5146276;27;19911;-44
2023/07/28 00:38:58;;;;;;;;;;;18.30;99.90;;;;;;5146616;27;19964;-43
2023/07/28 00:41:23;;;;;;;;;;;18.30;99.90;;;;;;5144952;27;20286;-44
2023/07/28 00:43:48;;;;;;;;;;;18.30;99.90;;;;;;5145965;27;19987;-43
2023/07/28 00:46:14;;;;;;;;;;;18.30;99.90;;;;;;5145624;27;19914;-44
2023/07/28 00:48:40;;;;;;;;;;;18.30;99.90;;;;;;5145227;27;19936;-44
2023/07/28 00:51:07;;;;;;;;;;;18.30;99.90;;;;;;5145688;27;19911;-44
2023/07/28 00:53:32;;;;;;;;;;;18.30;99.90;;;;;;5145111;27;19912;-43
2023/07/28 00:55:58;;;;;;;;;;;18.30;99.90;;;;;;5145161;27;19914;-43
2023/07/28 00:58:24;;;;;;;;;;;18.30;99.90;;;;;;5145836;27;19911;-43
2023/07/28 01:00:49;;;;;;;;;;;18.30;99.90;;;;;;5144018;27;19923;-44
2023/07/28 01:03:15;;;;;;;;;;;18.30;99.90;;;;;;5145870;27;19950;-43
2023/07/28 01:05:48;;;;;;;;;;;18.30;99.90;;;;;;5145429;27;20257;-43
2023/07/28 01:08:37;;;;;;;;;;;18.30;99.90;;;;;;5142145;27;19911;-43
2023/07/28 01:11:03;;;;;;;;;;;18.30;99.90;;;;;;5133769;27;20010;-44
2023/07/28 01:13:28;;;;;;;;;;;18.30;99.90;;;;;;5141082;27;19966;-44
2023/07/28 01:15:54;;;;;;;;;;;18.30;99.90;;;;;;5143059;27;19951;-43
2023/07/28 01:18:20;;;;;;;;;;;18.30;99.90;;;;;;5144926;27;19915;-43
2023/07/28 01:20:47;;;;;;;;;;;18.30;99.90;;;;;;5144053;27;20230;-43
2023/07/28 01:23:36;;;;;;;;;;;18.30;99.90;;;;;;5145582;27;20188;-43
2023/07/28 01:26:01;;;;;;;;;;;18.30;99.90;;;;;;5128354;27;19908;-43
2023/07/28 01:28:27;;;;;;;;;;;18.30;99.90;;;;;;5156261;27;20338;-43
2023/07/28 01:30:52;;;;;;;;;;;18.30;99.90;;;;;;5156463;27;19947;-43
2023/07/28 01:33:18;;;;;;;;;;;18.30;99.90;;;;;;5155680;27;19960;-44
2023/07/28 01:35:44;;;;;;;;;;;18.30;99.90;;;;;;5156373;27;20283;-42
2023/07/28 01:38:09;;;;;;;;;;;18.30;99.90;;;;;;5155823;27;19911;-43
2023/07/28 01:40:35;;;;;;;;;;;18.30;99.90;;;;;;5155519;27;19915;-46
2023/07/28 01:43:00;;;;;;;;;;;18.30;99.90;;;;;;5155903;27;19919;-44
2023/07/28 01:45:26;;;;;;;;;;;18.30;99.90;;;;;;5155948;27;19922;-43
2023/07/28 01:47:51;;;;;;;;;;;18.30;99.90;;;;;;5155359;27;19914;-43
2023/07/28 01:50:17;;;;;;;;;;;18.30;99.90;;;;;;5156057;27;20385;-44
2023/07/28 01:52:42;;;;;;;;;;;18.30;99.90;;;;;;5155308;27;19914;-43
2023/07/28 01:55:08;;;;;;;;;;;18.30;99.90;;;;;;5155616;27;19963;-42
2023/07/28 01:57:33;;;;;;;;;;;18.30;99.90;;;;;;5156092;27;19914;-43
2023/07/28 01:59:59;;;;;;;;;;;18.30;99.90;;;;;;5155080;27;20384;-43
2023/07/28 02:02:25;;;;;;;;;;;18.30;99.90;;;;;;5155924;27;19994;-43
2023/07/28 02:04:50;;;;;;;;;;;18.30;99.90;;;;;;5149915;27;19911;-44
2023/07/28 02:07:16;;;;;;;;;;;18.30;99.90;;;;;;5134466;27;19911;-43
2023/07/28 02:09:41;;;;;;;;;;;18.30;99.90;;;;;;5135066;27;19907;-43
2023/07/28 02:12:06;;;;;;;;;;;18.30;99.90;;;;;;5134932;27;20389;-43
2023/07/28 02:14:32;;;;;;;;;;;18.30;99.90;;;;;;5133985;27;19954;-43
2023/07/28 02:16:57;;;;;;;;;;;18.30;99.90;;;;;;5134680;27;19911;-43
2023/07/28 02:19:24;;;;;;;;;;;18.30;99.90;;;;;;5134762;27;19912;-44
2023/07/28 02:21:49;;;;;;;;;;;18.30;99.90;;;;;;5133905;27;19957;-43
2023/07/28 02:24:15;;;;;;;;;;;18.30;99.90;;;;;;5134525;27;19908;-43
2023/07/28 02:26:40;;;;;;;;;;;18.30;99.90;;;;;;5134721;27;19907;-43
2023/07/28 02:29:05;;;;;;;;;;;18.30;99.90;;;;;;5133775;27;20317;-44
2023/07/28 02:31:31;;;;;;;;;;;18.30;99.90;;;;;;5134551;27;19914;-42
2023/07/28 02:33:56;;;;;;;;;;;18.30;99.90;;;;;;5134476;27;19911;-43
2023/07/28 02:36:22;;;;;;;;;;;18.30;99.90;;;;;;5151549;27;19911;-43
2023/07/28 02:38:47;;;;;;;;;;;18.30;99.90;;;;;;5148795;27;19912;-44
2023/07/28 02:41:13;;;;;;;;;;;18.30;99.90;;;;;;5134386;27;19926;-43
2023/07/28 02:43:38;;;;;;;;;;;18.30;99.90;;;;;;5133495;27;19926;-44
2023/07/28 02:46:04;;;;;;;;;;;18.30;99.90;;;;;;5134305;27;19912;-44
2023/07/28 02:48:30;;;;;;;;;;;18.30;99.90;;;;;;5134320;27;20016;-44
2023/07/28 02:50:55;;;;;;;;;;;18.30;99.90;;;;;;5133364;27;20360;-43
2023/07/28 02:53:21;;;;;;;;;;;18.30;99.90;;;;;;5134159;27;19911;-43
2023/07/28 02:55:47;;;;;;;;;;;18.20;99.90;;;;;;5133707;27;19917;-44
2023/07/28 02:58:13;;;;;;;;;;;18.30;99.90;;;;;;5133374;27;19934;-44
2023/07/28 03:00:42;;;;;;;;;;;18.30;99.90;;;;;;5134144;27;19934;-43
2023/07/28 03:03:10;;;;;;;;;;;18.30;99.90;;;;;;5132843;27;19964;-43
2023/07/28 03:05:36;;;;;;;;;;;18.30;99.90;;;;;;5134196;27;19980;-43
2023/07/28 03:08:01;;;;;;;;;;;18.30;99.90;;;;;;5134025;27;20345;-44
2023/07/28 03:10:27;;;;;;;;;;;18.30;99.90;;;;;;5133283;27;19915;-44
2023/07/28 03:12:52;;;;;;;;;;;18.30;99.90;;;;;;5132194;27;19915;-43
2023/07/28 03:15:18;;;;;;;;;;;18.30;99.90;;;;;;5114626;28;19964;-43
2023/07/28 03:17:43;;;;;;;;;;;18.30;99.90;;;;;;5112596;28;19908;-43
2023/07/28 03:20:09;;;;;;;;;;;18.30;99.90;;;;;;5113174;28;19959;-43
2023/07/28 03:22:34;;;;;;;;;;;18.30;99.90;;;;;;5113404;28;20274;-43
2023/07/28 03:25:00;;;;;;;;;;;18.30;99.90;;;;;;5112218;28;19907;-44
2023/07/28 03:27:25;;;;;;;;;;;18.30;99.90;;;;;;5113340;28;19911;-44
2023/07/28 03:29:51;;;;;;;;;;;18.30;99.90;;;;;;5113104;28;19930;-43
2023/07/28 03:32:16;;;;;;;;;;;18.30;99.90;;;;;;5112342;28;19908;-43
2023/07/28 03:34:42;;;;;;;;;;;18.30;99.90;;;;;;5113179;28;19914;-43
2023/07/28 03:37:08;;;;;;;;;;;18.20;99.90;;;;;;5113058;28;19912;-44
2023/07/28 03:39:33;;;;;;;;;;;18.30;99.90;;;;;;5112318;28;20304;-44
2023/07/28 03:41:59;;;;;;;;;;;18.30;99.90;;;;;;5112663;28;19923;-43
2023/07/28 03:44:24;;;;;;;;;;;18.30;99.90;;;;;;5113161;28;19951;-43
2023/07/28 03:46:50;;;;;;;;;;;18.30;99.90;;;;;;5114361;27;20557;-44
2023/07/28 03:49:15;;;;;;;;;;;18.20;99.90;;;;;;5132684;28;19962;-44
2023/07/28 03:51:41;;;;;;;;;;;18.30;99.90;;;;;;5137053;27;20337;-43
2023/07/28 03:54:06;;;;;;;;;;;18.20;99.90;;;;;;5157587;27;19923;-43
2023/07/28 03:56:32;;;;;;;;;;;18.20;99.90;;;;;;5158432;27;20001;-42
2023/07/28 03:58:57;;;;;;;;;;;18.20;99.90;;;;;;5158276;27;19907;-43
2023/07/28 04:01:24;;;;;;;;;;;18.30;99.90;;;;;;5157117;27;19922;-43
2023/07/28 04:03:49;;;;;;;;;;;18.30;99.90;;;;;;5158185;27;19907;-44
2023/07/28 04:06:15;;;;;;;;;;;18.30;99.90;;;;;;5157581;27;20429;-45
2023/07/28 04:08:40;;;;;;;;;;;18.30;99.90;;;;;;5157362;27;19907;-43
2023/07/28 04:11:06;;;;;;;;;;;18.30;99.90;;;;;;5158172;27;19918;-43
2023/07/28 04:13:32;;;;;;;;;;;18.30;99.90;;;;;;5139367;27;19911;-43
2023/07/28 04:15:58;;;;;;;;;;;18.30;99.90;;;;;;5137365;27;19907;-43
2023/07/28 04:18:23;;;;;;;;;;;18.30;99.90;;;;;;5137420;27;20258;-43
2023/07/28 04:20:49;;;;;;;;;;;18.30;99.90;;;;;;5136393;27;20388;-43
2023/07/28 04:23:14;;;;;;;;;;;18.30;99.90;;;;;;5129642;27;19912;-43
2023/07/28 04:25:40;;;;;;;;;;;18.30;99.90;;;;;;5124944;27;19950;-42
2023/07/28 04:28:05;;;;;;;;;;;18.40;99.90;;;;;;5115798;28;19908;-43
2023/07/28 04:30:31;;;;;;;;;;;18.30;99.90;;;;;;5116517;28;20370;-43
2023/07/28 04:32:56;;;;;;;;;;;18.30;99.90;;;;;;5128893;27;19923;-43
2023/07/28 04:35:22;;;;;;;;;;;18.40;99.90;;;;;;5136219;27;19943;-42
2023/07/28 04:37:47;;;;;;;;;;;18.40;99.90;;;;;;5136887;27;20006;-43
2023/07/28 04:40:13;;;;;;;;;;;18.40;99.90;;;;;;5136790;27;19937;-43
2023/07/28 04:42:39;;;;;;;;;;;18.40;99.90;;;;;;5119627;27;19965;-43
2023/07/28 04:45:04;;;;;;;;;;;18.40;99.90;;;;;;5119112;27;19915;-43
2023/07/28 04:47:30;;;;;;;;;;;18.40;99.90;;;;;;5128230;27;19916;-43
2023/07/28 04:49:55;;;;;;;;;;;18.40;99.90;;;;;;5117592;27;19930;-43
2023/07/28 04:52:21;;;;;;;;;;;18.40;99.90;;;;;;5116037;28;20044;-43
2023/07/28 04:54:46;;;;;;;;;;;18.40;99.90;;;;;;5116029;28;20274;-43
2023/07/28 04:57:12;;;;;;;;;;;18.40;99.90;;;;;;5115151;28;19994;-43
2023/07/28 04:59:38;;;;;;;;;;;18.40;99.90;;;;;;5152018;27;19918;-44
2023/07/28 05:02:03;;;;;;;;;;;18.40;99.90;;;;;;5139422;27;19991;-45
2023/07/28 05:04:29;;;;;;;;;;;18.40;99.90;;;;;;5133637;27;20467;-43
2023/07/28 05:06:54;;;;;;;;;;;18.40;99.90;;;;;;5133425;27;19912;-43
2023/07/28 05:09:20;;;;;;;;;;;18.40;99.90;;;;;;5120135;27;19914;-43
2023/07/28 05:11:45;;;;;;;;;;;18.40;99.90;;;;;;5127193;27;19968;-43
2023/07/28 05:14:11;;;;;;;;;;;18.40;99.90;;;;;;5132220;27;19943;-43
2023/07/28 05:16:36;;;;;;;;;;;18.40;99.90;;;;;;5125696;27;19915;-43
2023/07/28 05:19:03;;;;;;;;;;;18.40;99.90;;;;;;5120173;27;19994;-42
2023/07/28 05:21:29;;;;;;;;;;;18.50;99.90;;;;;;5124472;27;20042;-43
2023/07/28 05:23:54;;;;;;;;;;;18.50;99.90;;;;;;5124369;27;20745;-43
2023/07/28 05:26:20;;;;;;;;;;;18.50;99.90;;;;;;5115422;28;19958;-43
2023/07/28 05:28:45;;;;;;;;;;;18.60;99.90;;;;;;5115473;28;19915;-43
2023/07/28 05:31:13;;;;;;;;;;;18.60;99.90;;;;;;5124182;27;19944;-44
2023/07/28 05:33:39;;;;;;;;;;;18.60;99.90;;;;;;5133680;27;20280;-43
2023/07/28 05:36:05;;;;;;;;;;;18.70;99.90;;;;;;5128946;27;19979;-43
2023/07/28 05:38:30;;;;;;;;;;;18.60;99.90;;;;;;5128775;27;20320;-44
2023/07/28 05:40:57;;;;;;;;;;;18.70;99.90;;;;;;5121844;27;19924;-43
2023/07/28 05:43:22;;;;;;;;;;;18.70;99.90;;;;;;5117989;27;19923;-43
2023/07/28 05:45:48;;;;;;;;;;;18.60;99.90;;;;;;5135045;27;19952;-43
2023/07/28 05:48:13;;;;;;;;;;;18.70;99.90;;;;;;5118751;27;19915;-43
2023/07/28 05:50:39;;;;;;;;;;;18.70;99.90;;;;;;5115964;27;20033;-43
2023/07/28 05:53:04;;;;;;;;;;;18.70;99.90;;;;;;5114115;28;19960;-44
2023/07/28 05:55:30;;;;;;;;;;;18.70;99.90;;;;;;5114715;28;19912;-44
2023/07/28 05:57:55;;;;;;;;;;;18.70;99.90;;;;;;5115105;27;20056;-46
2023/07/28 06:00:21;;;;;;;;;;;18.70;99.90;;;;;;5142527;27;19919;-43
2023/07/28 06:02:47;;;;;;;;;;;18.80;99.90;;;;;;5135694;27;19918;-43
2023/07/28 06:05:12;;;;;;;;;;;18.80;99.90;;;;;;5139036;27;19915;-43
2023/07/28 06:07:38;;;;;;;;;;;18.80;99.90;;;;;;5150052;27;19985;-42
2023/07/28 06:10:04;;;;;;;;;;;18.80;99.90;;;;;;5148932;27;20295;-42
2023/07/28 06:12:29;;;;;;;;;;;18.80;99.90;;;;;;5128241;27;19908;-43
2023/07/28 06:14:55;;;;;;;;;;;18.90;99.90;;;;;;5112878;28;19908;-44
2023/07/28 06:17:20;;;;;;;;;;;18.90;99.90;;;;;;5114403;28;20360;-43
2023/07/28 06:19:46;;;;;;;;;;;18.90;99.90;;;;;;5114446;28;19908;-43
2023/07/28 06:22:11;;;;;;;;;;;18.80;99.90;;;;;;5119683;27;19916;-43
2023/07/28 06:24:37;;;;;;;;;;;18.90;99.90;;;;;;5132885;27;20350;-44
2023/07/28 06:27:08;;;;;;;;;;;18.90;99.90;;;;;;5133310;27;20270;-43
2023/07/28 06:29:34;;;;;;;;;;;18.90;99.90;;;;;;5146310;27;20576;-44
2023/07/28 06:31:59;;;;;;;;;;;19.00;99.90;;;;;;5134712;27;19908;-44
2023/07/28 06:34:25;;;;;;;;;;;19.00;99.90;;;;;;5138647;27;19930;-43
2023/07/28 06:36:50;;;;;;;;;;;19.00;99.90;;;;;;5146840;27;20010;-43
2023/07/28 06:39:16;;;;;;;;;;;19.00;99.90;;;;;;5135564;27;19915;-44
2023/07/28 06:41:41;;;;;;;;;;;19.10;99.90;;;;;;5139151;27;19915;-43
2023/07/28 06:44:08;;;;;;;;;;;19.10;99.90;;;;;;5127788;27;20275;-43
2023/07/28 06:46:33;;;;;;;;;;;19.20;99.90;;;;;;5134501;27;19977;-43
2023/07/28 06:48:59;;;;;;;;;;;19.20;99.90;;;;;;5120579;27;19937;-43
2023/07/28 06:51:24;;;;;;;;;;;19.30;99.90;;;;;;5139012;27;19912;-43
2023/07/28 06:53:50;;;;;;;;;;;19.30;99.90;;;;;;5126597;27;20388;-44
2023/07/28 06:56:16;;;;;;;;;;;19.40;99.90;;;;;;5136918;27;19912;-43
2023/07/28 06:58:41;;;;;;;;;;;19.40;99.90;;;;;;5129934;27;20316;-43
2023/07/28 07:01:10;;;;;;;;;;;19.40;99.90;;;;;;5126136;27;19923;-43
2023/07/28 07:03:38;;;;;;;;;;;19.40;99.90;;;;;;5127340;27;20366;-44
2023/07/28 07:06:04;;;;;;;;;;;19.40;99.90;;;;;;5140443;27;19918;-43
2023/07/28 07:08:29;;;;;;;;;;;19.40;99.90;;;;;;5149261;27;19911;-43
2023/07/28 07:10:55;;;;;;;;;;;19.40;99.90;;;;;;5153367;27;19914;-43
2023/07/28 07:13:20;;;;;;;;;;;19.40;99.90;;;;;;5141187;27;19947;-44
2023/07/28 07:15:46;;;;;;;;;;;19.40;99.90;;;;;;5154556;27;20377;-43
2023/07/28 07:18:11;;;;;;;;;;;19.50;99.90;;;;;;5153882;27;19914;-43
2023/07/28 07:20:38;;;;;;;;;;;19.40;99.90;;;;;;5130395;27;19931;-43
2023/07/28 07:23:04;;;;;;;;;;;19.50;99.90;;;;;;5132155;27;19927;-43
2023/07/28 07:25:29;;;;;;;;;;;19.40;99.90;;;;;;5113447;27;19912;-44
2023/07/28 07:27:55;;;;;;;;;;;19.50;99.90;;;;;;5126624;27;20052;-43
2023/07/28 07:30:21;;;;;;;;;;;19.60;99.90;;;;;;5130644;27;19965;-43
2023/07/28 07:32:46;;;;;;;;;;;19.60;99.90;;;;;;5121455;28;19916;-42
2023/07/28 07:35:12;;;;;;;;;;;19.60;99.90;;;;;;5127271;28;19922;-41
2023/07/28 07:37:38;;;;;;;;;;;19.70;99.90;;;;;;5116694;28;20010;-43
2023/07/28 07:40:04;;;;;;;;;;;19.70;99.90;;;;;;5135481;27;19911;-43
2023/07/28 07:42:41;;;;;;;;;;;19.80;99.90;;;;;;5137045;27;20374;-43
2023/07/28 07:45:07;;;;;;;;;;;19.80;99.90;;;;;;5129760;27;20010;-43
2023/07/28 07:47:32;;;;;;;;;;;19.80;99.90;;;;;;5133623;27;19947;-43
2023/07/28 07:49:58;;;;;;;;;;;19.90;99.90;;;;;;5148669;27;19997;-45
2023/07/28 07:52:23;;;;;;;;;;;20.00;99.90;;;;;;5153058;27;19914;-44
2023/07/28 07:54:49;;;;;;;;;;;20.10;99.90;;;;;;5154210;27;19915;-43
2023/07/28 07:57:14;;;;;;;;;;;20.00;99.90;;;;;;5154405;27;19908;-43
2023/07/28 07:59:40;;;;;;;;;;;20.10;99.90;;;;;;5124582;27;20324;-44
2023/07/28 08:02:05;;;;;;;;;;;20.00;99.90;;;;;;5112732;28;19916;-43
2023/07/28 08:04:31;;;;;;;;;;;20.10;99.90;;;;;;5112992;28;19916;-43
2023/07/28 08:06:57;;;;;;;;;;;20.10;99.90;;;;;;5123771;28;19915;-43
2023/07/28 08:09:22;;;;;;;;;;;20.20;99.90;;;;;;5117698;27;20351;-42
2023/07/28 08:11:48;;;;;;;;;;;20.30;99.90;;;;;;5120011;28;19959;-43
2023/07/28 08:14:14;;;;;;;;;;;20.50;99.90;;;;;;5126518;28;19915;-43
2023/07/28 08:16:39;;;;;;;;;;;20.50;99.90;;;;;;5121693;28;20022;-45
2023/07/28 08:19:04;;;;;;;;;;;20.50;99.90;;;;;;5130141;27;20362;-43
2023/07/28 08:21:31;;;;;;;;;;;20.50;99.90;;;;;;5132309;28;19919;-43
2023/07/28 08:23:56;;;;;;;;;;;20.60;99.90;;;;;;5131556;28;20399;-43
2023/07/28 08:26:22;;;;;;;;;;;20.70;99.90;;;;;;5116813;28;19912;-43
2023/07/28 08:28:47;;;;;;;;;;;20.80;99.90;;;;;;5119309;27;19916;-44
2023/07/28 08:31:12;;;;;;;;;;;21.10;99.90;;;;;;5128972;27;19918;-44
2023/07/28 08:33:38;;;;;;;;;;;21.10;99.90;;;;;;5130481;28;19907;-43
2023/07/28 08:36:04;;;;;;;;;;;21.10;99.90;;;;;;5131004;27;19943;-43
2023/07/28 08:38:29;;;;;;;;;;;21.00;99.90;;;;;;5113839;28;19974;-44
2023/07/28 08:40:58;;;;;;;;;;;20.90;99.90;;;;;;5113330;27;19919;-44
2023/07/28 08:43:24;;;;;;;;;;;20.90;99.90;;;;;;5125202;27;19920;-43
2023/07/28 08:45:50;;;;;;;;;;;20.80;99.90;;;;;;5122343;27;19968;-43
2023/07/28 08:48:15;;;;;;;;;;;20.90;99.90;;;;;;5139394;27;19919;-43
2023/07/28 08:50:41;;;;;;;;;;;20.80;99.90;;;;;;5125233;27;19912;-43
2023/07/28 08:53:06;;;;;;;;;;;20.80;99.90;;;;;;5118647;27;19938;-43
2023/07/28 08:55:32;;;;;;;;;;;20.90;99.90;;;;;;5118357;27;19951;-44
2023/07/28 08:58:13;;;;;;;;;;;21.00;99.90;;;;;;5115594;28;20337;-44
2023/07/28 09:00:40;;;;;;;;;;;21.10;99.90;;;;;;5123778;27;19920;-44
2023/07/28 09:03:08;;;;;;;;;;;21.20;99.90;;;;;;5117601;27;20332;-44
2023/07/28 09:05:33;;;;;;;;;;;21.30;99.90;;;;;;5122893;27;20291;-43
2023/07/28 09:07:59;;;;;;;;;;;21.40;99.90;;;;;;5115341;28;19907;-44
2023/07/28 09:10:24;;;;;;;;;;;21.50;99.90;;;;;;5115131;28;19961;-43
2023/07/28 09:12:50;;;;;;;;;;;21.50;99.90;;;;;;5130219;27;19911;-43
2023/07/28 09:15:16;;;;;;;;;;;21.70;99.90;;;;;;5135614;27;19915;-43
2023/07/28 09:17:45;;;;;;;;;;;21.70;99.90;;;;;;5114769;28;19916;-43
2023/07/28 09:20:16;;;;;;;;;;;21.60;99.90;;;;;;5115435;28;19912;-43
2023/07/28 09:22:43;;;;;;;;;;;21.60;99.90;;;;;;5132478;27;19911;-46
2023/07/28 09:25:15;;;;;;;;;;;21.40;99.90;;;;;;5135646;27;20255;-44
2023/07/28 09:27:41;;;;;;;;;;;21.40;99.90;;;;;;5135374;27;20342;-43
2023/07/28 09:30:07;;;;;;;;;;;21.30;99.90;;;;;;5135327;27;19985;-43
2023/07/28 09:32:33;;;;;;;;;;;21.20;99.90;;;;;;5135565;27;19911;-43
2023/07/28 09:35:12;;;;;;;;;;;21.20;99.90;;;;;;5135823;27;19912;-44
2023/07/28 09:37:42;;;;;;;;;;;21.20;99.90;;;;;;5135332;27;19915;-43
2023/07/28 09:40:12;;;;;;;;;;;21.20;99.90;;;;;;5135501;27;19998;-43
2023/07/28 09:42:41;;;;;;;;;;;21.30;99.90;;;;;;5131998;27;19927;-42
2023/07/28 09:45:08;;;;;;;;;;;21.40;99.90;;;;;;5117311;27;19919;-43
2023/07/28 09:47:37;;;;;;;;;;;21.50;99.90;;;;;;5132649;27;19919;-43
2023/07/28 09:50:04;;;;;;;;;;;21.50;99.90;;;;;;5130492;27;20355;-44
2023/07/28 09:52:34;;;;;;;;;;;21.50;99.90;;;;;;5113990;28;19939;-43
2023/07/28 09:55:03;;;;;;;;;;;21.60;99.90;;;;;;5114688;28;19962;-43
2023/07/28 09:57:29;;;;;;;;;;;21.80;99.90;;;;;;5123854;27;19957;-44
2023/07/28 09:59:56;;;;;;;;;;;21.90;99.90;;;;;;5118989;27;19957;-44
2023/07/28 10:02:22;;;;;;;;;;;22.10;99.90;;;;;;5115262;27;19924;-44
2023/07/28 10:04:48;;;;;;;;;;;22.30;99.90;;;;;;5121934;27;19960;-43
2023/07/28 10:07:13;;;;;;;;;;;22.40;99.90;;;;;;5132962;27;19911;-43
2023/07/28 10:09:39;;;;;;;;;;;22.40;99.90;;;;;;5125506;27;19907;-43
2023/07/28 10:12:05;;;;;;;;;;;22.30;99.90;;;;;;5128920;27;19912;-43
2023/07/28 10:14:34;;;;;;;;;;;22.30;99.90;;;;;;5131948;27;19912;-44
2023/07/28 10:17:01;;;;;;;;;;;22.30;99.90;;;;;;5142792;27;19911;-43
2023/07/28 10:19:27;;;;;;;;;;;22.30;99.90;;;;;;5124588;27;19912;-45
2023/07/28 10:22:05;;;;;;;;;;;22.30;99.90;;;;;;5113559;28;19961;-43
2023/07/28 10:24:49;;;;;;;;;;;22.30;99.90;;;;;;5118676;27;19956;-44
2023/07/28 10:27:28;;;;;;;;;;;22.30;99.90;;;;;;5120321;27;19912;-43
2023/07/28 10:30:00;;;;;;;;;;;22.50;99.90;;;;;;5128222;27;19998;-44
2023/07/28 10:32:27;;;;;;;;;;;22.70;99.90;;;;;;5123017;27;20018;-44
2023/07/28 10:35:00;;;;;;;;;;;22.70;99.90;;;;;;5123477;27;19911;-43
2023/07/28 10:37:25;;;;;;;;;;;22.90;99.90;;;;;;5124832;27;20208;-44
2023/07/28 10:40:11;;;;;;;;;;;23.20;99.90;;;;;;5123214;27;20121;-44
2023/07/28 10:42:36;;;;;;;;;;;23.30;99.90;;;;;;5132801;27;19919;-43
2023/07/28 10:45:04;;;;;;;;;;;23.40;99.90;;;;;;5123144;27;19911;-43
2023/07/28 10:47:29;;;;;;;;;;;23.50;99.90;;;;;;5121324;27;20363;-43
2023/07/28 10:49:54;;;;;;;;;;;23.60;99.90;;;;;;5128486;27;20003;-44
2023/07/28 10:52:23;;;;;;;;;;;23.70;99.90;;;;;;5126125;27;20002;-43
2023/07/28 10:54:48;;;;;;;;;;;23.70;99.90;;;;;;5126071;27;20373;-44
2023/07/28 10:57:14;;;;;;;;;;;23.70;99.90;;;;;;5114722;27;19964;-43
2023/07/28 10:59:39;;;;;;;;;;;23.70;99.90;;;;;;5123572;27;19934;-44
2023/07/28 11:02:05;;;;;;;;;;;23.70;99.90;;;;;;5131580;27;19970;-44
2023/07/28 11:04:30;;;;;;;;;;;23.90;99.90;;;;;;5113942;28;19912;-44
2023/07/28 11:06:56;;;;;;;;;;;23.90;99.90;;;;;;5115261;27;19908;-43
2023/07/28 11:09:25;;;;;;;;;;;23.70;99.90;;;;;;5134390;27;20010;-43
2023/07/28 11:11:51;;;;;;;;;;;23.60;99.90;;;;;;5132548;27;20361;-45
2023/07/28 11:14:17;;;;;;;;;;;23.50;99.90;;;;;;5130267;27;19919;-45
2023/07/28 11:16:44;;;;;;;;;;;23.30;99.90;;;;;;5126311;27;19978;-44
2023/07/28 11:19:11;;;;;;;;;;;23.30;99.90;;;;;;5129306;27;19916;-44
2023/07/28 11:21:40;;;;;;;;;;;23.30;99.90;;;;;;5114164;27;19920;-43
2023/07/28 11:24:09;;;;;;;;;;;23.50;99.90;;;;;;5118974;27;19959;-44
2023/07/28 11:26:35;;;;;;;;;;;23.50;99.90;;;;;;5113845;28;19908;-43
2023/07/28 11:29:01;;;;;;;;;;;23.50;99.90;;;;;;5113229;28;19911;-44
2023/07/28 11:31:27;;;;;;;;;;;23.50;99.90;;;;;;5112442;28;19961;-44
2023/07/28 11:33:53;;;;;;;;;;;23.50;99.90;;;;;;5131314;27;20434;-43
2023/07/28 11:36:22;;;;;;;;;;;23.50;99.90;;;;;;5133828;27;19907;-43
2023/07/28 11:38:48;;;;;;;;;;;23.50;99.90;;;;;;5133719;28;19919;-43
2023/07/28 11:41:14;;;;;;;;;;;23.60;99.90;;;;;;5133684;28;19919;-45
2023/07/28 11:43:46;;;;;;;;;;;23.60;99.90;;;;;;5133669;27;20297;-43
2023/07/28 11:46:30;;;;;;;;;;;23.70;99.90;;;;;;5133666;28;19994;-43
2023/07/28 11:49:05;;;;;;;;;;;23.50;99.90;;;;;;5133620;28;19967;-43
2023/07/28 11:51:31;;;;;;;;;;;23.40;99.90;;;;;;5132907;28;19993;-43
2023/07/28 11:53:57;;;;;;;;;;;23.30;99.90;;;;;;5133432;27;19959;-43
2023/07/28 11:56:22;;;;;;;;;;;23.20;99.90;;;;;;5133546;28;20353;-43
2023/07/28 11:58:51;;;;;;;;;;;23.10;99.90;;;;;;5132700;28;19918;-43
2023/07/28 12:01:16;;;;;;;;;;;23.00;99.90;;;;;;5133393;28;19983;-45
2023/07/28 12:03:42;;;;;;;;;;;22.90;99.90;;;;;;5133334;27;20354;-43
2023/07/28 12:06:09;;;;;;;;;;;22.90;99.90;;;;;;5132708;28;19915;-43
2023/07/28 12:08:36;;;;;;;;;;;22.90;99.90;;;;;;5133505;28;19908;-45
2023/07/28 12:11:02;;;;;;;;;;;22.70;99.90;;;;;;5133367;27;20005;-43
2023/07/28 12:13:27;;;;;;;;;;;22.50;99.90;;;;;;5136412;27;20463;-44
2023/07/28 12:15:52;;;;;;;;;;;22.30;99.90;;;;;;5137418;27;19914;-44
2023/07/28 12:18:19;;;;;;;;;;;22.30;99.90;;;;;;5137338;27;20255;-44
2023/07/28 12:20:49;;;;;;;;;;;22.20;99.90;;;;;;5136471;27;19972;-43
2023/07/28 12:23:16;;;;;;;;;;;22.20;99.90;;;;;;5137663;27;19994;-43
2023/07/28 12:25:42;;;;;;;;;;;22.30;99.90;;;;;;5136450;27;19907;-44
2023/07/28 12:28:07;;;;;;;;;;;22.40;99.90;;;;;;5137138;27;19908;-44
2023/07/28 12:30:33;;;;;;;;;;;22.60;99.90;;;;;;5137208;27;19907;-44
2023/07/28 12:32:59;;;;;;;;;;;22.80;99.90;;;;;;5136378;27;20365;-44
2023/07/28 12:35:24;;;;;;;;;;;22.90;99.90;;;;;;5137201;27;19952;-43
2023/07/28 12:37:51;;;;;;;;;;;23.10;99.90;;;;;;5137270;27;19908;-43
2023/07/28 12:40:18;;;;;;;;;;;23.40;99.90;;;;;;5135907;27;19908;-45
2023/07/28 12:42:44;;;;;;;;;;;23.60;99.90;;;;;;5136695;27;20122;-43
2023/07/28 12:45:11;;;;;;;;;;;23.70;99.90;;;;;;5136829;27;19985;-43
2023/07/28 12:47:36;;;;;;;;;;;23.90;99.90;;;;;;5136142;27;20006;-43
2023/07/28 12:50:02;;;;;;;;;;;24.00;99.90;;;;;;5136696;27;19939;-44
2023/07/28 12:52:27;;;;;;;;;;;24.20;99.90;;;;;;5136737;27;20377;-44
2023/07/28 12:54:53;;;;;;;;;;;24.20;99.90;;;;;;5135771;27;19975;-44
2023/07/28 12:57:18;;;;;;;;;;;24.40;99.90;;;;;;5136745;27;19946;-43
2023/07/28 12:59:44;;;;;;;;;;;24.40;99.90;;;;;;5136676;27;19907;-44
2023/07/28 13:02:09;;;;;;;;;;;24.30;99.90;;;;;;5150342;27;20429;-44
2023/07/28 13:04:35;;;;;;;;;;;24.20;99.90;;;;;;5157343;27;19908;-46
2023/07/28 13:07:00;;;;;;;;;;;24.10;99.90;;;;;;5157204;27;20383;-45
2023/07/28 13:09:26;;;;;;;;;;;24.00;99.90;;;;;;5156292;27;19914;-44
2023/07/28 13:11:51;;;;;;;;;;;24.00;99.90;;;;;;5156705;27;20350;-45
2023/07/28 13:14:16;;;;;;;;;;;23.90;99.90;;;;;;5157082;27;20474;-43
2023/07/28 13:16:44;;;;;;;;;;;23.90;99.90;;;;;;5156512;27;19994;-44
2023/07/28 13:19:09;;;;;;;;;;;24.20;99.90;;;;;;5156919;27;19907;-45
2023/07/28 13:21:35;;;;;;;;;;;24.30;99.90;;;;;;5156529;27;19926;-43
2023/07/28 13:24:01;;;;;;;;;;;24.20;99.90;;;;;;5155706;27;19907;-45
2023/07/28 13:26:26;;;;;;;;;;;24.40;99.90;;;;;;5156901;27;19907;-43
2023/07/28 13:28:52;;;;;;;;;;;24.70;99.90;;;;;;5156565;27;19932;-44
2023/07/28 13:31:18;;;;;;;;;;;25.10;99.90;;;;;;5155891;27;19915;-43
2023/07/28 13:33:44;;;;;;;;;;;25.50;99.90;;;;;;5156705;27;19960;-44
2023/07/28 13:36:09;;;;;;;;;;;25.90;99.90;;;;;;5155864;27;19907;-43
2023/07/28 13:38:35;;;;;;;;;;;26.10;99.90;;;;;;5156534;27;19964;-43
2023/07/28 13:41:00;;;;;;;;;;;26.20;99.90;;;;;;5119797;27;19924;-43
2023/07/28 13:43:26;;;;;;;;;;;26.10;99.90;;;;;;5118928;27;20348;-46
2023/07/28 13:45:51;;;;;;;;;;;25.80;99.90;;;;;;5124590;27;19911;-48
2023/07/28 13:48:17;;;;;;;;;;;26.10;99.90;;;;;;5138092;27;20443;-47
2023/07/28 13:50:42;;;;;;;;;;;26.20;99.90;;;;;;5127503;27;19972;-44
2023/07/28 13:53:08;;;;;;;;;;;26.30;99.90;;;;;;5124166;27;19927;-43
2023/07/28 13:55:34;;;;;;;;;;;26.50;99.90;;;;;;5124157;27;19912;-43
2023/07/28 13:57:59;;;;;;;;;;;26.60;99.90;;;;;;5126527;27;19911;-43
2023/07/28 14:00:25;;;;;;;;;;;26.70;99.90;;;;;;5119161;27;20012;-47
2023/07/28 14:02:50;;;;;;;;;;;26.80;99.90;;;;;;5114862;27;20385;-44
2023/07/28 14:05:16;;;;;;;;;;;27.10;99.90;;;;;;5122318;27;19911;-50
2023/07/28 14:07:41;;;;;;;;;;;27.40;99.90;;;;;;5132387;27;19907;-45
2023/07/28 14:10:07;;;;;;;;;;;27.50;99.90;;;;;;5117480;27;19974;-45